sensor_id;sensor_type;location;lat;lon;timestamp;P1;durP1;ratioP1;P2;durP2;ratioP2
27704;SDS011;15109;50.992;6.918;2022-10-16T00:01:28;1.95;;;0.80;;
27704;SDS011;15109;50.992;6.918;2022-10-16T00:04:50;0.63;;;0.52;;
27704;SDS011;15109;50.992;6.918;2022-10-16T00:08:12;0.52;;;0.45;;
27704;SDS011;15109;50.992;6.918;2022-10-16T00:11:34;5.90;;;0.90;;
27704;SDS011;15109;50.992;6.918;2022-10-16T00:14:59;0.30;;;0.30;;
27704;SDS011;15109;50.992;6.918;2022-10-16T00:18:23;1.05;;;0.70;;
27704;SDS011;15109;50.992;6.918;2022-10-16T00:21:45;1.52;;;0.90;;
27704;SDS011;15109;50.992;6.918;2022-10-16T00:25:06;0.75;;;0.63;;
27704;SDS011;15109;50.992;6.918;2022-10-16T00:28:27;1.58;;;0.75;;
27704;SDS011;15109;50.992;6.918;2022-10-16T00:31:48;1.67;;;0.70;;
27704;SDS011;15109;50.992;6.918;2022-10-16T00:35:09;0.63;;;0.38;;
27704;SDS011;15109;50.992;6.918;2022-10-16T00:38:31;1.38;;;0.65;;
27704;SDS011;15109;50.992;6.918;2022-10-16T00:41:52;3.72;;;0.70;;
27704;SDS011;15109;50.992;6.918;2022-10-16T00:45:13;1.23;;;0.70;;
27704;SDS011;15109;50.992;6.918;2022-10-16T00:48:34;0.75;;;0.43;;
27704;SDS011;15109;50.992;6.918;2022-10-16T00:51:55;1.42;;;1.05;;
27704;SDS011;15109;50.992;6.918;2022-10-16T00:55:16;1.13;;;0.68;;
27704;SDS011;15109;50.992;6.918;2022-10-16T00:58:38;0.95;;;0.65;;
27704;SDS011;15109;50.992;6.918;2022-10-16T01:02:00;0.45;;;0.45;;
27704;SDS011;15109;50.992;6.918;2022-10-16T01:05:43;1.17;;;0.43;;
27704;SDS011;15109;50.992;6.918;2022-10-16T01:09:30;0.65;;;0.40;;
27704;SDS011;15109;50.992;6.918;2022-10-16T01:17:00;1.48;;;0.85;;
27704;SDS011;15109;50.992;6.918;2022-10-16T01:27:47;2.58;;;0.57;;
27704;SDS011;15109;50.992;6.918;2022-10-16T01:31:09;0.88;;;0.52;;
27704;SDS011;15109;50.992;6.918;2022-10-16T01:34:33;0.52;;;0.50;;
27704;SDS011;15109;50.992;6.918;2022-10-16T01:41:33;0.65;;;0.47;;
27704;SDS011;15109;50.992;6.918;2022-10-16T01:44:59;0.30;;;0.30;;
27704;SDS011;15109;50.992;6.918;2022-10-16T01:48:21;0.70;;;0.57;;
27704;SDS011;15109;50.992;6.918;2022-10-16T01:51:47;1.02;;;0.60;;
27704;SDS011;15109;50.992;6.918;2022-10-16T01:55:16;0.75;;;0.55;;
27704;SDS011;15109;50.992;6.918;2022-10-16T01:58:41;0.55;;;0.40;;
27704;SDS011;15109;50.992;6.918;2022-10-16T02:02:07;0.77;;;0.50;;
27704;SDS011;15109;50.992;6.918;2022-10-16T02:05:33;1.05;;;0.60;;
27704;SDS011;15109;50.992;6.918;2022-10-16T02:08:59;0.93;;;0.68;;
27704;SDS011;15109;50.992;6.918;2022-10-16T02:12:25;0.32;;;0.32;;
27704;SDS011;15109;50.992;6.918;2022-10-16T02:15:49;1.13;;;0.57;;
27704;SDS011;15109;50.992;6.918;2022-10-16T02:19:10;1.88;;;0.75;;
27704;SDS011;15109;50.992;6.918;2022-10-16T02:22:34;5.18;;;0.70;;
27704;SDS011;15109;50.992;6.918;2022-10-16T02:25:58;0.57;;;0.47;;
27704;SDS011;15109;50.992;6.918;2022-10-16T02:29:24;0.80;;;0.47;;
27704;SDS011;15109;50.992;6.918;2022-10-16T02:32:47;0.80;;;0.45;;
27704;SDS011;15109;50.992;6.918;2022-10-16T02:36:09;0.45;;;0.40;;
27704;SDS011;15109;50.992;6.918;2022-10-16T02:39:31;0.45;;;0.20;;
27704;SDS011;15109;50.992;6.918;2022-10-16T02:42:53;0.73;;;0.43;;
27704;SDS011;15109;50.992;6.918;2022-10-16T02:46:15;0.45;;;0.35;;
27704;SDS011;15109;50.992;6.918;2022-10-16T02:49:38;0.65;;;0.40;;
27704;SDS011;15109;50.992;6.918;2022-10-16T02:52:59;0.10;;;0.10;;
27704;SDS011;15109;50.992;6.918;2022-10-16T02:56:20;0.77;;;0.45;;
27704;SDS011;15109;50.992;6.918;2022-10-16T02:59:42;1.83;;;0.70;;
27704;SDS011;15109;50.992;6.918;2022-10-16T03:03:03;2.58;;;1.35;;
27704;SDS011;15109;50.992;6.918;2022-10-16T03:06:24;0.85;;;0.38;;
27704;SDS011;15109;50.992;6.918;2022-10-16T03:09:45;0.30;;;0.30;;
27704;SDS011;15109;50.992;6.918;2022-10-16T03:13:06;3.47;;;0.80;;
27704;SDS011;15109;50.992;6.918;2022-10-16T03:16:27;0.22;;;0.22;;
27704;SDS011;15109;50.992;6.918;2022-10-16T03:19:48;0.57;;;0.45;;
27704;SDS011;15109;50.992;6.918;2022-10-16T03:23:10;0.43;;;0.40;;
27704;SDS011;15109;50.992;6.918;2022-10-16T03:26:31;0.50;;;0.40;;
27704;SDS011;15109;50.992;6.918;2022-10-16T03:29:52;0.90;;;0.47;;
27704;SDS011;15109;50.992;6.918;2022-10-16T03:33:13;0.30;;;0.30;;
27704;SDS011;15109;50.992;6.918;2022-10-16T03:36:34;1.52;;;0.63;;
27704;SDS011;15109;50.992;6.918;2022-10-16T03:39:57;0.47;;;0.35;;
27704;SDS011;15109;50.992;6.918;2022-10-16T03:43:19;1.02;;;0.63;;
27704;SDS011;15109;50.992;6.918;2022-10-16T03:46:41;0.40;;;0.20;;
27704;SDS011;15109;50.992;6.918;2022-10-16T03:50:02;0.73;;;0.28;;
27704;SDS011;15109;50.992;6.918;2022-10-16T03:53:24;0.55;;;0.43;;
27704;SDS011;15109;50.992;6.918;2022-10-16T03:56:45;0.30;;;0.30;;
27704;SDS011;15109;50.992;6.918;2022-10-16T04:00:06;0.45;;;0.38;;
27704;SDS011;15109;50.992;6.918;2022-10-16T04:03:32;0.88;;;0.57;;
27704;SDS011;15109;50.992;6.918;2022-10-16T04:06:53;0.22;;;0.22;;
27704;SDS011;15109;50.992;6.918;2022-10-16T04:10:14;2.05;;;0.73;;
27704;SDS011;15109;50.992;6.918;2022-10-16T04:13:36;0.25;;;0.22;;
27704;SDS011;15109;50.992;6.918;2022-10-16T04:16:57;0.80;;;0.40;;
27704;SDS011;15109;50.992;6.918;2022-10-16T04:20:18;0.25;;;0.25;;
27704;SDS011;15109;50.992;6.918;2022-10-16T04:23:39;0.20;;;0.20;;
27704;SDS011;15109;50.992;6.918;2022-10-16T04:27:00;0.30;;;0.22;;
27704;SDS011;15109;50.992;6.918;2022-10-16T04:30:21;0.38;;;0.38;;
27704;SDS011;15109;50.992;6.918;2022-10-16T04:33:43;0.10;;;0.10;;
27704;SDS011;15109;50.992;6.918;2022-10-16T04:37:04;0.15;;;0.15;;
27704;SDS011;15109;50.992;6.918;2022-10-16T04:40:26;0.50;;;0.35;;
27704;SDS011;15109;50.992;6.918;2022-10-16T04:43:47;0.15;;;0.10;;
27704;SDS011;15109;50.992;6.918;2022-10-16T04:47:08;0.40;;;0.38;;
27704;SDS011;15109;50.992;6.918;2022-10-16T04:50:29;0.30;;;0.30;;
27704;SDS011;15109;50.992;6.918;2022-10-16T04:53:59;0.40;;;0.30;;
27704;SDS011;15109;50.992;6.918;2022-10-16T04:57:20;0.43;;;0.30;;
27704;SDS011;15109;50.992;6.918;2022-10-16T05:00:41;0.10;;;0.10;;
27704;SDS011;15109;50.992;6.918;2022-10-16T05:04:02;2.90;;;0.43;;
27704;SDS011;15109;50.992;6.918;2022-10-16T05:07:23;0.20;;;0.20;;
27704;SDS011;15109;50.992;6.918;2022-10-16T05:10:45;0.95;;;0.43;;
27704;SDS011;15109;50.992;6.918;2022-10-16T05:14:06;0.82;;;0.50;;
27704;SDS011;15109;50.992;6.918;2022-10-16T05:17:27;0.28;;;0.22;;
27704;SDS011;15109;50.992;6.918;2022-10-16T05:20:48;0.30;;;0.30;;
27704;SDS011;15109;50.992;6.918;2022-10-16T05:24:09;0.20;;;0.20;;
27704;SDS011;15109;50.992;6.918;2022-10-16T05:27:30;0.30;;;0.25;;
27704;SDS011;15109;50.992;6.918;2022-10-16T05:30:52;1.00;;;0.35;;
27704;SDS011;15109;50.992;6.918;2022-10-16T05:34:13;0.52;;;0.30;;
27704;SDS011;15109;50.992;6.918;2022-10-16T05:37:34;0.35;;;0.30;;
27704;SDS011;15109;50.992;6.918;2022-10-16T05:40:55;1.83;;;0.77;;
27704;SDS011;15109;50.992;6.918;2022-10-16T05:44:19;0.40;;;0.40;;
27704;SDS011;15109;50.992;6.918;2022-10-16T05:47:42;0.55;;;0.40;;
27704;SDS011;15109;50.992;6.918;2022-10-16T05:51:05;1.55;;;0.40;;
27704;SDS011;15109;50.992;6.918;2022-10-16T05:54:30;0.20;;;0.20;;
27704;SDS011;15109;50.992;6.918;2022-10-16T05:57:53;0.55;;;0.35;;
27704;SDS011;15109;50.992;6.918;2022-10-16T06:01:16;0.52;;;0.40;;
27704;SDS011;15109;50.992;6.918;2022-10-16T06:04:39;0.52;;;0.40;;
27704;SDS011;15109;50.992;6.918;2022-10-16T06:08:00;0.10;;;0.10;;
27704;SDS011;15109;50.992;6.918;2022-10-16T06:11:22;0.40;;;0.35;;
27704;SDS011;15109;50.992;6.918;2022-10-16T06:14:45;0.80;;;0.38;;
27704;SDS011;15109;50.992;6.918;2022-10-16T06:18:10;0.35;;;0.35;;
27704;SDS011;15109;50.992;6.918;2022-10-16T06:21:31;1.75;;;0.47;;
27704;SDS011;15109;50.992;6.918;2022-10-16T06:24:52;0.55;;;0.32;;
27704;SDS011;15109;50.992;6.918;2022-10-16T06:28:14;0.50;;;0.40;;
27704;SDS011;15109;50.992;6.918;2022-10-16T06:31:35;0.63;;;0.40;;
27704;SDS011;15109;50.992;6.918;2022-10-16T06:34:56;0.40;;;0.40;;
27704;SDS011;15109;50.992;6.918;2022-10-16T06:38:17;0.80;;;0.40;;
27704;SDS011;15109;50.992;6.918;2022-10-16T06:41:38;0.55;;;0.40;;
27704;SDS011;15109;50.992;6.918;2022-10-16T06:45:09;1.83;;;0.60;;
27704;SDS011;15109;50.992;6.918;2022-10-16T06:48:30;2.17;;;0.75;;
27704;SDS011;15109;50.992;6.918;2022-10-16T06:51:51;0.85;;;0.50;;
27704;SDS011;15109;50.992;6.918;2022-10-16T06:55:15;0.60;;;0.50;;
27704;SDS011;15109;50.992;6.918;2022-10-16T06:58:37;1.30;;;0.70;;
27704;SDS011;15109;50.992;6.918;2022-10-16T07:02:01;1.52;;;0.73;;
27704;SDS011;15109;50.992;6.918;2022-10-16T07:05:24;0.25;;;0.25;;
27704;SDS011;15109;50.992;6.918;2022-10-16T07:08:46;0.52;;;0.40;;
27704;SDS011;15109;50.992;6.918;2022-10-16T07:12:07;0.55;;;0.50;;
27704;SDS011;15109;50.992;6.918;2022-10-16T07:15:29;0.22;;;0.22;;
27704;SDS011;15109;50.992;6.918;2022-10-16T07:18:50;0.68;;;0.50;;
27704;SDS011;15109;50.992;6.918;2022-10-16T07:22:12;0.45;;;0.38;;
27704;SDS011;15109;50.992;6.918;2022-10-16T07:25:33;0.82;;;0.70;;
27704;SDS011;15109;50.992;6.918;2022-10-16T07:28:54;0.65;;;0.50;;
27704;SDS011;15109;50.992;6.918;2022-10-16T07:32:15;0.55;;;0.45;;
27704;SDS011;15109;50.992;6.918;2022-10-16T07:35:36;0.20;;;0.20;;
27704;SDS011;15109;50.992;6.918;2022-10-16T07:38:57;0.90;;;0.63;;
27704;SDS011;15109;50.992;6.918;2022-10-16T07:42:18;0.30;;;0.30;;
27704;SDS011;15109;50.992;6.918;2022-10-16T07:45:47;0.60;;;0.47;;
27704;SDS011;15109;50.992;6.918;2022-10-16T07:49:11;2.17;;;0.40;;
27704;SDS011;15109;50.992;6.918;2022-10-16T07:52:32;0.35;;;0.35;;
27704;SDS011;15109;50.992;6.918;2022-10-16T07:56:00;1.27;;;0.85;;
27704;SDS011;15109;50.992;6.918;2022-10-16T07:59:22;0.30;;;0.30;;
27704;SDS011;15109;50.992;6.918;2022-10-16T08:02:43;0.70;;;0.45;;
27704;SDS011;15109;50.992;6.918;2022-10-16T08:06:04;1.05;;;0.60;;
27704;SDS011;15109;50.992;6.918;2022-10-16T08:09:25;1.08;;;0.50;;
27704;SDS011;15109;50.992;6.918;2022-10-16T08:12:46;1.20;;;0.40;;
27704;SDS011;15109;50.992;6.918;2022-10-16T08:16:08;0.15;;;0.15;;
27704;SDS011;15109;50.992;6.918;2022-10-16T08:19:30;0.80;;;0.43;;
27704;SDS011;15109;50.992;6.918;2022-10-16T08:22:54;1.27;;;0.45;;
27704;SDS011;15109;50.992;6.918;2022-10-16T08:26:16;0.40;;;0.40;;
27704;SDS011;15109;50.992;6.918;2022-10-16T08:29:37;0.90;;;0.52;;
27704;SDS011;15109;50.992;6.918;2022-10-16T08:32:59;0.30;;;0.30;;
27704;SDS011;15109;50.992;6.918;2022-10-16T08:36:20;2.88;;;1.05;;
27704;SDS011;15109;50.992;6.918;2022-10-16T08:39:42;0.65;;;0.35;;
27704;SDS011;15109;50.992;6.918;2022-10-16T08:50:26;0.70;;;0.60;;
27704;SDS011;15109;50.992;6.918;2022-10-16T08:53:49;0.25;;;0.13;;
27704;SDS011;15109;50.992;6.918;2022-10-16T08:57:20;0.65;;;0.30;;
27704;SDS011;15109;50.992;6.918;2022-10-16T09:00:43;0.68;;;0.28;;
27704;SDS011;15109;50.992;6.918;2022-10-16T09:11:20;0.10;;;0.10;;
27704;SDS011;15109;50.992;6.918;2022-10-16T09:14:56;0.30;;;0.30;;
27704;SDS011;15109;50.992;6.918;2022-10-16T09:18:21;0.60;;;0.43;;
27704;SDS011;15109;50.992;6.918;2022-10-16T09:21:46;0.28;;;0.20;;
27704;SDS011;15109;50.992;6.918;2022-10-16T09:25:15;0.10;;;0.10;;
27704;SDS011;15109;50.992;6.918;2022-10-16T09:28:38;0.20;;;0.20;;
27704;SDS011;15109;50.992;6.918;2022-10-16T09:32:06;1.10;;;0.40;;
27704;SDS011;15109;50.992;6.918;2022-10-16T09:39:04;1.00;;;0.32;;
27704;SDS011;15109;50.992;6.918;2022-10-16T09:42:30;0.25;;;0.22;;
27704;SDS011;15109;50.992;6.918;2022-10-16T09:45:54;0.10;;;0.10;;
27704;SDS011;15109;50.992;6.918;2022-10-16T09:49:24;0.10;;;0.10;;
27704;SDS011;15109;50.992;6.918;2022-10-16T09:52:46;0.55;;;0.30;;
27704;SDS011;15109;50.992;6.918;2022-10-16T09:56:09;0.10;;;0.10;;
27704;SDS011;15109;50.992;6.918;2022-10-16T09:59:34;0.50;;;0.33;;
27704;SDS011;15109;50.992;6.918;2022-10-16T10:03:09;3.13;;;0.60;;
27704;SDS011;15109;50.992;6.918;2022-10-16T10:06:35;0.20;;;0.20;;
27704;SDS011;15109;50.992;6.918;2022-10-16T10:10:01;0.73;;;0.40;;
27704;SDS011;15109;50.992;6.918;2022-10-16T10:13:24;0.73;;;0.28;;
27704;SDS011;15109;50.992;6.918;2022-10-16T10:16:46;0.15;;;0.15;;
27704;SDS011;15109;50.992;6.918;2022-10-16T10:20:16;0.20;;;0.20;;
27704;SDS011;15109;50.992;6.918;2022-10-16T10:23:55;1.85;;;0.20;;
27704;SDS011;15109;50.992;6.918;2022-10-16T10:27:17;1.30;;;0.45;;
27704;SDS011;15109;50.992;6.918;2022-10-16T10:37:52;0.25;;;0.20;;
27704;SDS011;15109;50.992;6.918;2022-10-16T11:06:51;0.10;;;0.10;;
27704;SDS011;15109;50.992;6.918;2022-10-16T11:10:35;0.52;;;0.30;;
27704;SDS011;15109;50.992;6.918;2022-10-16T11:14:15;0.73;;;0.30;;
27704;SDS011;15109;50.992;6.918;2022-10-16T11:21:29;0.10;;;0.10;;
27704;SDS011;15109;50.992;6.918;2022-10-16T11:24:59;0.20;;;0.20;;
27704;SDS011;15109;50.992;6.918;2022-10-16T11:28:26;0.22;;;0.20;;
27704;SDS011;15109;50.992;6.918;2022-10-16T11:32:14;0.22;;;0.20;;
27704;SDS011;15109;50.992;6.918;2022-10-16T11:35:49;0.30;;;0.30;;
27704;SDS011;15109;50.992;6.918;2022-10-16T11:39:24;0.25;;;0.15;;
27704;SDS011;15109;50.992;6.918;2022-10-16T11:42:51;0.30;;;0.30;;
27704;SDS011;15109;50.992;6.918;2022-10-16T11:46:19;1.00;;;0.30;;
27704;SDS011;15109;50.992;6.918;2022-10-16T11:49:44;0.20;;;0.15;;
27704;SDS011;15109;50.992;6.918;2022-10-16T11:53:28;0.75;;;0.20;;
27704;SDS011;15109;50.992;6.918;2022-10-16T11:57:08;0.32;;;0.20;;
27704;SDS011;15109;50.992;6.918;2022-10-16T12:00:40;1.00;;;0.32;;
27704;SDS011;15109;50.992;6.918;2022-10-16T12:11:36;0.10;;;0.10;;
27704;SDS011;15109;50.992;6.918;2022-10-16T12:15:47;2.05;;;0.52;;
27704;SDS011;15109;50.992;6.918;2022-10-16T12:18:45;1.20;;;0.47;;
27704;SDS011;15109;50.992;6.918;2022-10-16T12:22:15;0.52;;;0.20;;
27704;SDS011;15109;50.992;6.918;2022-10-16T12:25:39;0.00;;;0.00;;
27704;SDS011;15109;50.992;6.918;2022-10-16T12:29:31;0.10;;;0.10;;
27704;SDS011;15109;50.992;6.918;2022-10-16T12:32:57;0.20;;;0.20;;
27704;SDS011;15109;50.992;6.918;2022-10-16T12:36:34;0.43;;;0.30;;
27704;SDS011;15109;50.992;6.918;2022-10-16T12:39:56;0.10;;;0.10;;
27704;SDS011;15109;50.992;6.918;2022-10-16T12:46:47;0.20;;;0.20;;
27704;SDS011;15109;50.992;6.918;2022-10-16T12:54:01;0.10;;;0.10;;
27704;SDS011;15109;50.992;6.918;2022-10-16T13:09:25;0.52;;;0.22;;
27704;SDS011;15109;50.992;6.918;2022-10-16T13:20:29;0.38;;;0.15;;
27704;SDS011;15109;50.992;6.918;2022-10-16T13:31:18;5.38;;;0.50;;
27704;SDS011;15109;50.992;6.918;2022-10-16T13:34:45;3.90;;;0.38;;
27704;SDS011;15109;50.992;6.918;2022-10-16T13:41:34;0.20;;;0.20;;
27704;SDS011;15109;50.992;6.918;2022-10-16T13:44:55;0.30;;;0.25;;
27704;SDS011;15109;50.992;6.918;2022-10-16T13:48:16;0.65;;;0.32;;
27704;SDS011;15109;50.992;6.918;2022-10-16T13:51:37;0.20;;;0.20;;
27704;SDS011;15109;50.992;6.918;2022-10-16T13:54:59;0.68;;;0.30;;
27704;SDS011;15109;50.992;6.918;2022-10-16T13:58:20;0.15;;;0.15;;
27704;SDS011;15109;50.992;6.918;2022-10-16T14:01:41;0.20;;;0.20;;
27704;SDS011;15109;50.992;6.918;2022-10-16T14:05:04;0.10;;;0.10;;
27704;SDS011;15109;50.992;6.918;2022-10-16T14:08:31;0.20;;;0.20;;
27704;SDS011;15109;50.992;6.918;2022-10-16T14:11:58;1.55;;;0.40;;
27704;SDS011;15109;50.992;6.918;2022-10-16T14:15:24;0.10;;;0.10;;
27704;SDS011;15109;50.992;6.918;2022-10-16T14:18:48;0.20;;;0.20;;
27704;SDS011;15109;50.992;6.918;2022-10-16T14:25:48;0.10;;;0.10;;
27704;SDS011;15109;50.992;6.918;2022-10-16T14:29:14;0.20;;;0.15;;
27704;SDS011;15109;50.992;6.918;2022-10-16T14:32:39;8.05;;;0.40;;
27704;SDS011;15109;50.992;6.918;2022-10-16T14:36:03;0.10;;;0.10;;
27704;SDS011;15109;50.992;6.918;2022-10-16T14:39:32;0.35;;;0.30;;
27704;SDS011;15109;50.992;6.918;2022-10-16T14:42:55;0.52;;;0.30;;
27704;SDS011;15109;50.992;6.918;2022-10-16T14:46:20;0.30;;;0.30;;
27704;SDS011;15109;50.992;6.918;2022-10-16T14:49:46;0.10;;;0.10;;
27704;SDS011;15109;50.992;6.918;2022-10-16T14:53:11;0.20;;;0.20;;
27704;SDS011;15109;50.992;6.918;2022-10-16T14:56:43;0.10;;;0.10;;
27704;SDS011;15109;50.992;6.918;2022-10-16T15:00:15;0.20;;;0.20;;
27704;SDS011;15109;50.992;6.918;2022-10-16T15:03:42;0.10;;;0.10;;
27704;SDS011;15109;50.992;6.918;2022-10-16T15:07:03;2.75;;;0.20;;
27704;SDS011;15109;50.992;6.918;2022-10-16T15:10:25;0.20;;;0.20;;
27704;SDS011;15109;50.992;6.918;2022-10-16T15:13:49;0.10;;;0.10;;
27704;SDS011;15109;50.992;6.918;2022-10-16T15:17:12;0.80;;;0.20;;
27704;SDS011;15109;50.992;6.918;2022-10-16T15:20:34;0.50;;;0.35;;
27704;SDS011;15109;50.992;6.918;2022-10-16T15:23:57;1.85;;;0.40;;
27704;SDS011;15109;50.992;6.918;2022-10-16T15:27:19;0.20;;;0.20;;
27704;SDS011;15109;50.992;6.918;2022-10-16T15:30:40;0.43;;;0.28;;
27704;SDS011;15109;50.992;6.918;2022-10-16T15:34:02;0.55;;;0.32;;
27704;SDS011;15109;50.992;6.918;2022-10-16T15:37:24;0.20;;;0.20;;
27704;SDS011;15109;50.992;6.918;2022-10-16T15:40:49;0.22;;;0.22;;
27704;SDS011;15109;50.992;6.918;2022-10-16T15:44:10;0.13;;;0.13;;
27704;SDS011;15109;50.992;6.918;2022-10-16T15:47:31;2.03;;;0.47;;
27704;SDS011;15109;50.992;6.918;2022-10-16T15:50:53;1.42;;;0.57;;
27704;SDS011;15109;50.992;6.918;2022-10-16T15:54:14;0.38;;;0.32;;
27704;SDS011;15109;50.992;6.918;2022-10-16T15:57:36;0.38;;;0.30;;
27704;SDS011;15109;50.992;6.918;2022-10-16T16:01:02;0.40;;;0.30;;
27704;SDS011;15109;50.992;6.918;2022-10-16T16:04:29;1.02;;;0.43;;
27704;SDS011;15109;50.992;6.918;2022-10-16T16:07:50;1.17;;;0.60;;
27704;SDS011;15109;50.992;6.918;2022-10-16T16:11:12;1.13;;;0.55;;
27704;SDS011;15109;50.992;6.918;2022-10-16T16:14:35;1.40;;;0.90;;
27704;SDS011;15109;50.992;6.918;2022-10-16T16:17:56;1.17;;;0.82;;
27704;SDS011;15109;50.992;6.918;2022-10-16T16:21:17;0.95;;;0.73;;
27704;SDS011;15109;50.992;6.918;2022-10-16T16:24:38;3.05;;;1.15;;
27704;SDS011;15109;50.992;6.918;2022-10-16T16:28:02;2.65;;;1.15;;
27704;SDS011;15109;50.992;6.918;2022-10-16T16:31:24;1.45;;;0.75;;
27704;SDS011;15109;50.992;6.918;2022-10-16T16:34:46;2.08;;;1.27;;
27704;SDS011;15109;50.992;6.918;2022-10-16T16:38:07;0.80;;;0.60;;
27704;SDS011;15109;50.992;6.918;2022-10-16T16:41:28;1.33;;;0.80;;
27704;SDS011;15109;50.992;6.918;2022-10-16T16:44:50;0.98;;;0.50;;
27704;SDS011;15109;50.992;6.918;2022-10-16T16:48:11;0.45;;;0.30;;
27704;SDS011;15109;50.992;6.918;2022-10-16T16:51:33;0.65;;;0.43;;
27704;SDS011;15109;50.992;6.918;2022-10-16T16:54:54;0.30;;;0.30;;
27704;SDS011;15109;50.992;6.918;2022-10-16T16:58:15;0.35;;;0.35;;
27704;SDS011;15109;50.992;6.918;2022-10-16T17:01:36;0.52;;;0.32;;
27704;SDS011;15109;50.992;6.918;2022-10-16T17:04:57;4.95;;;0.52;;
27704;SDS011;15109;50.992;6.918;2022-10-16T17:08:18;0.73;;;0.47;;
27704;SDS011;15109;50.992;6.918;2022-10-16T17:11:40;0.98;;;0.43;;
27704;SDS011;15109;50.992;6.918;2022-10-16T17:15:05;1.90;;;0.90;;
27704;SDS011;15109;50.992;6.918;2022-10-16T17:18:26;1.02;;;0.45;;
27704;SDS011;15109;50.992;6.918;2022-10-16T17:21:48;1.50;;;0.70;;
27704;SDS011;15109;50.992;6.918;2022-10-16T17:25:10;0.30;;;0.30;;
27704;SDS011;15109;50.992;6.918;2022-10-16T17:28:31;0.95;;;0.50;;
27704;SDS011;15109;50.992;6.918;2022-10-16T17:31:55;0.68;;;0.38;;
27704;SDS011;15109;50.992;6.918;2022-10-16T17:35:16;1.65;;;0.63;;
27704;SDS011;15109;50.992;6.918;2022-10-16T17:38:38;0.40;;;0.28;;
27704;SDS011;15109;50.992;6.918;2022-10-16T17:41:59;0.75;;;0.57;;
27704;SDS011;15109;50.992;6.918;2022-10-16T17:45:20;8.02;;;0.82;;
27704;SDS011;15109;50.992;6.918;2022-10-16T17:48:42;1.17;;;0.60;;
27704;SDS011;15109;50.992;6.918;2022-10-16T17:52:08;0.80;;;0.57;;
27704;SDS011;15109;50.992;6.918;2022-10-16T17:55:29;0.98;;;0.75;;
27704;SDS011;15109;50.992;6.918;2022-10-16T17:58:50;1.48;;;0.70;;
27704;SDS011;15109;50.992;6.918;2022-10-16T18:02:13;0.95;;;0.50;;
27704;SDS011;15109;50.992;6.918;2022-10-16T18:05:36;0.40;;;0.40;;
27704;SDS011;15109;50.992;6.918;2022-10-16T18:08:58;0.30;;;0.30;;
27704;SDS011;15109;50.992;6.918;2022-10-16T18:12:20;0.47;;;0.30;;
27704;SDS011;15109;50.992;6.918;2022-10-16T18:15:41;1.25;;;0.30;;
27704;SDS011;15109;50.992;6.918;2022-10-16T18:19:03;0.40;;;0.32;;
27704;SDS011;15109;50.992;6.918;2022-10-16T18:22:24;1.08;;;0.70;;
27704;SDS011;15109;50.992;6.918;2022-10-16T18:25:50;0.88;;;0.68;;
27704;SDS011;15109;50.992;6.918;2022-10-16T18:29:11;1.67;;;0.30;;
27704;SDS011;15109;50.992;6.918;2022-10-16T18:32:33;0.40;;;0.30;;
27704;SDS011;15109;50.992;6.918;2022-10-16T18:35:54;2.22;;;0.85;;
27704;SDS011;15109;50.992;6.918;2022-10-16T18:39:15;0.38;;;0.38;;
27704;SDS011;15109;50.992;6.918;2022-10-16T18:42:38;0.30;;;0.30;;
27704;SDS011;15109;50.992;6.918;2022-10-16T18:46:03;1.27;;;0.63;;
27704;SDS011;15109;50.992;6.918;2022-10-16T18:49:26;0.60;;;0.40;;
27704;SDS011;15109;50.992;6.918;2022-10-16T18:52:49;0.85;;;0.50;;
27704;SDS011;15109;50.992;6.918;2022-10-16T18:56:10;0.28;;;0.28;;
27704;SDS011;15109;50.992;6.918;2022-10-16T18:59:34;2.88;;;0.77;;
27704;SDS011;15109;50.992;6.918;2022-10-16T19:02:55;1.00;;;0.60;;
27704;SDS011;15109;50.992;6.918;2022-10-16T19:06:17;0.50;;;0.50;;
27704;SDS011;15109;50.992;6.918;2022-10-16T19:09:38;1.23;;;0.43;;
27704;SDS011;15109;50.992;6.918;2022-10-16T19:12:59;0.68;;;0.50;;
27704;SDS011;15109;50.992;6.918;2022-10-16T19:16:21;0.68;;;0.47;;
27704;SDS011;15109;50.992;6.918;2022-10-16T19:19:47;1.83;;;0.55;;
27704;SDS011;15109;50.992;6.918;2022-10-16T19:23:08;1.05;;;0.50;;
27704;SDS011;15109;50.992;6.918;2022-10-16T19:26:29;1.45;;;0.95;;
27704;SDS011;15109;50.992;6.918;2022-10-16T19:29:51;3.35;;;0.68;;
27704;SDS011;15109;50.992;6.918;2022-10-16T19:33:12;1.10;;;0.60;;
27704;SDS011;15109;50.992;6.918;2022-10-16T19:36:34;1.17;;;0.60;;
27704;SDS011;15109;50.992;6.918;2022-10-16T19:39:56;0.20;;;0.20;;
27704;SDS011;15109;50.992;6.918;2022-10-16T19:43:17;0.90;;;0.40;;
27704;SDS011;15109;50.992;6.918;2022-10-16T19:46:39;0.20;;;0.20;;
27704;SDS011;15109;50.992;6.918;2022-10-16T19:50:00;0.77;;;0.55;;
27704;SDS011;15109;50.992;6.918;2022-10-16T19:53:21;2.10;;;0.55;;
27704;SDS011;15109;50.992;6.918;2022-10-16T19:56:42;1.70;;;0.70;;
27704;SDS011;15109;50.992;6.918;2022-10-16T20:00:05;1.23;;;0.70;;
27704;SDS011;15109;50.992;6.918;2022-10-16T20:03:27;1.00;;;0.50;;
27704;SDS011;15109;50.992;6.918;2022-10-16T20:06:48;6.88;;;1.08;;
27704;SDS011;15109;50.992;6.918;2022-10-16T20:10:09;3.17;;;1.50;;
27704;SDS011;15109;50.992;6.918;2022-10-16T20:13:31;2.50;;;1.48;;
27704;SDS011;15109;50.992;6.918;2022-10-16T20:16:53;2.00;;;1.17;;
27704;SDS011;15109;50.992;6.918;2022-10-16T20:20:14;2.00;;;1.20;;
27704;SDS011;15109;50.992;6.918;2022-10-16T20:23:35;1.95;;;1.23;;
27704;SDS011;15109;50.992;6.918;2022-10-16T20:26:56;2.35;;;1.33;;
27704;SDS011;15109;50.992;6.918;2022-10-16T20:30:19;4.78;;;0.95;;
27704;SDS011;15109;50.992;6.918;2022-10-16T20:33:40;1.35;;;0.85;;
27704;SDS011;15109;50.992;6.918;2022-10-16T20:37:01;0.45;;;0.40;;
27704;SDS011;15109;50.992;6.918;2022-10-16T20:40:22;0.63;;;0.50;;
27704;SDS011;15109;50.992;6.918;2022-10-16T20:43:44;0.57;;;0.50;;
27704;SDS011;15109;50.992;6.918;2022-10-16T20:47:07;0.40;;;0.40;;
27704;SDS011;15109;50.992;6.918;2022-10-16T20:50:28;1.70;;;0.73;;
27704;SDS011;15109;50.992;6.918;2022-10-16T20:53:57;0.40;;;0.38;;
27704;SDS011;15109;50.992;6.918;2022-10-16T20:57:20;1.15;;;0.50;;
27704;SDS011;15109;50.992;6.918;2022-10-16T21:00:43;0.85;;;0.80;;
27704;SDS011;15109;50.992;6.918;2022-10-16T21:04:06;0.80;;;0.63;;
27704;SDS011;15109;50.992;6.918;2022-10-16T21:07:28;1.80;;;0.95;;
27704;SDS011;15109;50.992;6.918;2022-10-16T21:10:49;0.55;;;0.35;;
27704;SDS011;15109;50.992;6.918;2022-10-16T21:14:12;1.95;;;0.88;;
27704;SDS011;15109;50.992;6.918;2022-10-16T21:17:33;0.55;;;0.40;;
27704;SDS011;15109;50.992;6.918;2022-10-16T21:20:55;1.35;;;0.70;;
27704;SDS011;15109;50.992;6.918;2022-10-16T21:24:16;1.98;;;0.80;;
27704;SDS011;15109;50.992;6.918;2022-10-16T21:27:38;1.77;;;0.73;;
27704;SDS011;15109;50.992;6.918;2022-10-16T21:31:09;1.15;;;0.70;;
27704;SDS011;15109;50.992;6.918;2022-10-16T21:34:34;1.35;;;0.80;;
27704;SDS011;15109;50.992;6.918;2022-10-16T21:37:55;2.42;;;1.00;;
27704;SDS011;15109;50.992;6.918;2022-10-16T21:41:20;2.72;;;0.98;;
27704;SDS011;15109;50.992;6.918;2022-10-16T21:44:43;2.03;;;1.33;;
27704;SDS011;15109;50.992;6.918;2022-10-16T21:48:04;1.63;;;0.98;;
27704;SDS011;15109;50.992;6.918;2022-10-16T21:51:26;3.30;;;1.63;;
27704;SDS011;15109;50.992;6.918;2022-10-16T21:54:48;2.33;;;1.30;;
27704;SDS011;15109;50.992;6.918;2022-10-16T21:58:09;3.53;;;0.95;;
27704;SDS011;15109;50.992;6.918;2022-10-16T22:01:30;4.45;;;1.35;;
27704;SDS011;15109;50.992;6.918;2022-10-16T22:04:51;0.60;;;0.60;;
27704;SDS011;15109;50.992;6.918;2022-10-16T22:08:15;2.35;;;1.33;;
27704;SDS011;15109;50.992;6.918;2022-10-16T22:11:39;2.00;;;0.90;;
27704;SDS011;15109;50.992;6.918;2022-10-16T22:15:02;1.35;;;0.90;;
27704;SDS011;15109;50.992;6.918;2022-10-16T22:18:23;1.00;;;0.90;;
27704;SDS011;15109;50.992;6.918;2022-10-16T22:21:44;2.03;;;1.02;;
27704;SDS011;15109;50.992;6.918;2022-10-16T22:25:06;1.73;;;1.20;;